createdAt,value
2022-11-28T00:01:51.696Z,69.63
2022-11-28T00:04:22.591Z,69.69
2022-11-28T00:06:54.506Z,69.72
2022-11-28T00:09:25.689Z,69.73
2022-11-28T00:11:56.764Z,69.72
2022-11-28T00:14:28.715Z,69.75
2022-11-28T00:16:59.671Z,69.74
2022-11-28T00:19:30.525Z,69.74
2022-11-28T00:22:01.353Z,69.75
2022-11-28T00:24:32.249Z,69.82
2022-11-28T00:27:02.981Z,69.81
2022-11-28T00:29:33.890Z,69.78
2022-11-28T00:32:04.817Z,69.81
2022-11-28T00:34:36.301Z,69.84
2022-11-28T00:37:07.247Z,69.85
2022-11-28T00:39:38.186Z,69.87
2022-11-28T00:42:09.156Z,69.90
2022-11-28T00:44:40.079Z,69.91
2022-11-28T00:47:11.250Z,69.97
2022-11-28T00:49:42.323Z,69.90
2022-11-28T00:52:13.223Z,69.91
2022-11-28T00:54:44.340Z,69.92
2022-11-28T00:57:15.653Z,70.05
2022-11-28T00:59:46.597Z,70.13
2022-11-28T01:02:17.421Z,70.13
2022-11-28T01:04:48.315Z,70.08
2022-11-28T01:07:19.985Z,70.16
2022-11-28T01:09:50.962Z,70.16
2022-11-28T01:12:22.098Z,70.23
2022-11-28T01:14:53.884Z,70.24
2022-11-28T01:17:24.771Z,70.21
2022-11-28T01:19:55.689Z,70.26
2022-11-28T01:22:26.631Z,70.33
2022-11-28T01:24:57.467Z,70.29
2022-11-28T01:27:28.319Z,70.28
2022-11-28T01:29:59.141Z,70.49
2022-11-28T01:32:31.707Z,70.42
2022-11-28T01:35:02.559Z,70.62
2022-11-28T01:37:33.282Z,70.64
2022-11-28T01:40:04.777Z,70.80
2022-11-28T01:42:35.534Z,70.57
2022-11-28T01:45:07.774Z,70.62
2022-11-28T01:47:38.646Z,70.49
2022-11-28T01:50:10.643Z,70.46
2022-11-28T01:52:42.849Z,70.44
2022-11-28T01:55:15.061Z,70.44
2022-11-28T01:57:45.962Z,70.61
2022-11-28T02:00:18.733Z,70.53
2022-11-28T02:02:50.676Z,70.62
2022-11-28T02:05:23.182Z,70.68
2022-11-28T02:07:54.083Z,70.71
2022-11-28T02:10:26.350Z,71.56
2022-11-28T02:13:14.728Z,71.12
2022-11-28T02:16:05.339Z,71.15
2022-11-28T02:18:38.386Z,71.12
2022-11-28T02:21:26.027Z,71.26
2022-11-28T02:23:58.673Z,71.23
2022-11-28T02:26:47.486Z,71.27
2022-11-28T02:29:36.252Z,71.45
2022-11-28T02:32:08.673Z,71.48
2022-11-28T02:34:45.654Z,71.59
2022-11-28T02:37:17.635Z,71.60
2022-11-28T02:39:55.955Z,71.72
2022-11-28T02:42:31.411Z,71.84
2022-11-28T02:45:10.056Z,71.83
2022-11-28T02:47:42.367Z,71.82
2022-11-28T02:50:17.332Z,71.95
2022-11-28T02:52:49.664Z,71.86
2022-11-28T02:55:21.676Z,71.87
2022-11-28T02:57:53.767Z,71.89
2022-11-28T03:00:32.537Z,71.92
2022-11-28T03:03:14.068Z,71.92
2022-11-28T03:05:46.543Z,72.13
2022-11-28T03:08:19.312Z,72.01
2022-11-28T03:10:57.690Z,71.92
2022-11-28T03:13:47.915Z,71.92
2022-11-28T03:16:20.658Z,71.98
2022-11-28T03:19:09.540Z,71.67
2022-11-28T03:21:42.459Z,71.66
2022-11-28T03:24:20.946Z,71.65
2022-11-28T03:26:56.647Z,71.75
2022-11-28T03:29:40.981Z,71.63
2022-11-28T03:32:13.647Z,71.67
2022-11-28T03:34:47.817Z,71.74
2022-11-28T03:37:20.144Z,71.71
2022-11-28T03:39:52.733Z,71.69
2022-11-28T03:42:25.191Z,71.77
2022-11-28T03:45:03.361Z,71.68
2022-11-28T03:47:36.473Z,71.72
2022-11-28T03:50:09.282Z,71.74
2022-11-28T03:52:41.888Z,71.37
2022-11-28T03:55:14.285Z,71.32
2022-11-28T03:58:01.966Z,70.52
2022-11-28T04:00:34.538Z,70.62
2022-11-28T04:03:13.074Z,70.57
2022-11-28T04:05:48.698Z,70.47
2022-11-28T04:08:27.440Z,70.49
2022-11-28T04:10:59.964Z,70.58
2022-11-28T04:13:35.542Z,70.70
2022-11-28T04:16:08.765Z,70.52
2022-11-28T04:18:57.612Z,70.48
2022-11-28T04:21:30.683Z,70.42
2022-11-28T04:24:09.381Z,70.44
2022-11-28T04:26:42.578Z,70.57
2022-11-28T04:29:14.999Z,70.56
2022-11-28T04:31:48.801Z,70.65
2022-11-28T04:34:21.516Z,70.68
2022-11-28T04:36:54.219Z,70.73
2022-11-28T04:39:27.389Z,70.71
2022-11-28T04:42:05.541Z,70.71
2022-11-28T04:44:38.439Z,70.76
2022-11-28T04:47:09.703Z,70.80
2022-11-28T04:49:41.210Z,70.86
2022-11-28T04:52:29.892Z,70.92
2022-11-28T04:55:09.618Z,70.87
2022-11-28T04:57:43.292Z,70.91
2022-11-28T05:00:15.800Z,70.95
2022-11-28T05:02:48.629Z,71.05
2022-11-28T05:05:21.716Z,71.05
2022-11-28T05:07:53.666Z,71.02
2022-11-28T05:10:24.927Z,70.93
2022-11-28T05:12:57.368Z,70.93
2022-11-28T05:15:28.727Z,71.04
2022-11-28T05:18:00.222Z,71.02
2022-11-28T05:20:31.672Z,71.08
2022-11-28T05:23:04.107Z,70.98
2022-11-28T05:25:35.786Z,70.50
2022-11-28T05:28:07.095Z,70.51
2022-11-28T05:30:38.130Z,70.47
2022-11-28T05:33:09.481Z,70.58
2022-11-28T05:35:42.416Z,70.16
2022-11-28T05:38:13.921Z,70.07
2022-11-28T05:40:45.523Z,70.15
2022-11-28T05:43:17.619Z,70.20
2022-11-28T05:45:49.875Z,70.10
2022-11-28T05:48:21.243Z,70.27
2022-11-28T05:50:52.608Z,70.23
2022-11-28T05:53:24.558Z,70.30
2022-11-28T05:55:57.202Z,70.14
2022-11-28T05:58:28.543Z,70.28
2022-11-28T06:01:00.249Z,70.27
2022-11-28T06:03:32.911Z,70.42
2022-11-28T06:06:05.767Z,70.36
2022-11-28T06:08:37.821Z,70.42
2022-11-28T06:11:09.920Z,70.40
2022-11-28T06:13:43.827Z,70.41
2022-11-28T06:16:16.961Z,70.45
2022-11-28T06:18:48.513Z,70.42
2022-11-28T06:21:19.863Z,70.00
2022-11-28T06:23:51.431Z,70.03
2022-11-28T06:26:24.353Z,70.10
2022-11-28T06:28:56.860Z,70.06
2022-11-28T06:31:30.044Z,70.06
2022-11-28T06:34:01.906Z,69.81
2022-11-28T06:36:33.471Z,69.81
2022-11-28T06:39:06.266Z,69.89
2022-11-28T06:41:39.398Z,69.87
2022-11-28T06:44:17.431Z,69.82
2022-11-28T06:46:49.386Z,69.76
2022-11-28T06:49:20.655Z,69.83
2022-11-28T06:51:52.656Z,69.78
2022-11-28T06:54:24.686Z,69.78
2022-11-28T06:56:56.032Z,69.76
2022-11-28T06:59:28.474Z,69.79
2022-11-28T07:02:07.247Z,69.77
2022-11-28T07:04:35.220Z,69.81
2022-11-28T07:07:06.507Z,69.87
2022-11-28T07:09:37.989Z,69.75
2022-11-28T07:12:09.247Z,69.82
2022-11-28T07:14:40.777Z,69.75
2022-11-28T07:17:12.515Z,69.83
2022-11-28T07:19:43.675Z,69.62
2022-11-28T07:22:15.334Z,69.59
2022-11-28T07:24:49.087Z,68.58
2022-11-28T07:27:20.603Z,68.86
2022-11-28T07:29:52.373Z,68.94
2022-11-28T07:32:23.671Z,68.96
2022-11-28T07:34:56.355Z,69.02
2022-11-28T07:37:27.722Z,69.14
2022-11-28T07:39:59.045Z,69.04
2022-11-28T07:42:31.762Z,69.09
2022-11-28T07:45:09.316Z,69.14
2022-11-28T07:47:40.470Z,69.22
2022-11-28T07:50:11.444Z,69.23
2022-11-28T07:52:42.878Z,69.24
2022-11-28T07:55:14.005Z,69.18
2022-11-28T07:57:45.175Z,69.23
2022-11-28T08:00:18.191Z,69.26
2022-11-28T08:02:49.164Z,69.05
2022-11-28T08:05:20.591Z,69.09
2022-11-28T08:07:51.803Z,69.07
2022-11-28T08:10:22.916Z,68.89
2022-11-28T08:12:53.786Z,68.77
2022-11-28T08:15:25.197Z,68.82
2022-11-28T08:17:56.575Z,68.76
2022-11-28T08:20:27.609Z,68.45
2022-11-28T08:22:58.831Z,68.20
2022-11-28T08:25:30.695Z,68.10
2022-11-28T08:28:01.865Z,68.19
2022-11-28T08:30:32.824Z,68.18
2022-11-28T08:33:04.641Z,68.28
2022-11-28T08:35:36.612Z,68.52
2022-11-28T08:38:07.824Z,68.55
2022-11-28T08:40:39.093Z,68.62
2022-11-28T08:43:10.474Z,68.39
2022-11-28T08:45:41.869Z,68.45
2022-11-28T08:48:12.810Z,68.52
2022-11-28T08:50:50.776Z,68.92
2022-11-28T08:53:23.157Z,68.77
2022-11-28T08:55:54.503Z,68.81
2022-11-28T08:58:25.516Z,68.84
2022-11-28T09:00:56.845Z,68.90
2022-11-28T09:03:28.543Z,68.81
2022-11-28T09:06:03.092Z,68.84
2022-11-28T09:08:34.438Z,68.89
2022-11-28T09:11:07.562Z,68.90
2022-11-28T09:13:39.769Z,68.84
2022-11-28T09:16:11.471Z,68.85
2022-11-28T09:18:42.913Z,68.75
2022-11-28T09:21:16.109Z,68.59
2022-11-28T09:23:48.840Z,68.18
2022-11-28T09:26:22.426Z,68.30
2022-11-28T09:28:54.103Z,68.39
2022-11-28T09:31:26.174Z,68.38
2022-11-28T09:33:57.996Z,68.40
2022-11-28T09:36:29.321Z,68.41
2022-11-28T09:39:02.039Z,68.38
2022-11-28T09:41:34.398Z,68.39
2022-11-28T09:44:09.807Z,67.99
2022-11-28T09:46:41.535Z,67.00
2022-11-28T09:49:17.210Z,66.97
2022-11-28T09:51:52.801Z,67.10
2022-11-28T09:54:29.312Z,66.97
2022-11-28T09:57:01.448Z,66.54
2022-11-28T09:59:32.947Z,66.63
2022-11-28T10:02:05.216Z,65.95
2022-11-28T10:04:38.034Z,65.76
2022-11-28T10:07:14.095Z,65.81
2022-11-28T10:09:53.023Z,65.86
2022-11-28T10:12:25.695Z,65.47
2022-11-28T10:15:14.478Z,64.90
2022-11-28T10:17:50.627Z,65.27
2022-11-28T10:20:29.251Z,65.22
2022-11-28T10:23:02.303Z,65.45
2022-11-28T10:25:37.899Z,65.34
2022-11-28T10:28:11.419Z,65.34
2022-11-28T10:30:44.182Z,65.51
2022-11-28T10:33:19.946Z,65.37
2022-11-28T10:35:55.371Z,64.37
2022-11-28T10:38:29.154Z,64.74
2022-11-28T10:41:20.023Z,64.64
2022-11-28T10:43:52.590Z,64.81
2022-11-28T10:46:25.412Z,64.70
2022-11-28T10:49:01.696Z,64.85
2022-11-28T10:51:46.273Z,65.14
2022-11-28T10:54:19.084Z,65.35
2022-11-28T10:56:51.934Z,65.40
2022-11-28T10:59:36.639Z,65.27
2022-11-28T11:02:21.009Z,65.55
2022-11-28T11:04:52.389Z,65.74
2022-11-28T11:07:31.452Z,65.67
2022-11-28T11:10:22.158Z,65.57
2022-11-28T11:12:54.225Z,65.44
2022-11-28T11:15:33.115Z,65.70
2022-11-28T11:18:05.467Z,65.78
2022-11-28T11:20:40.243Z,65.76
2022-11-28T11:23:18.519Z,65.78
2022-11-28T11:25:54.489Z,65.60
2022-11-28T11:28:27.150Z,64.25
2022-11-28T11:31:03.092Z,64.66
2022-11-28T11:33:35.966Z,64.81
2022-11-28T11:36:08.762Z,64.95
2022-11-28T11:38:40.432Z,64.89
2022-11-28T11:41:30.905Z,64.62
2022-11-28T11:44:18.972Z,64.38
2022-11-28T11:46:57.499Z,64.59
2022-11-28T11:49:29.392Z,64.50
2022-11-28T11:52:02.427Z,63.98
2022-11-28T11:54:33.874Z,64.18
2022-11-28T11:57:31.515Z,64.03
2022-11-28T11:59:40.775Z,63.71
2022-11-28T12:02:22.881Z,63.80
2022-11-28T12:04:55.754Z,63.23
2022-11-28T12:07:28.891Z,63.54
2022-11-28T12:12:34.885Z,63.51
2022-11-28T12:15:08.508Z,63.64
2022-11-28T12:17:50.095Z,63.88
2022-11-28T12:20:33.242Z,63.95
2022-11-28T12:23:25.012Z,64.17
2022-11-28T12:26:00.893Z,64.32
2022-11-28T12:28:51.925Z,64.40
2022-11-28T12:31:24.289Z,64.52
2022-11-28T12:34:06.591Z,64.57
2022-11-28T12:36:39.115Z,64.60
2022-11-28T12:39:20.342Z,64.91
2022-11-28T12:41:55.337Z,64.57
2022-11-28T12:44:27.671Z,64.53
2022-11-28T12:47:02.918Z,64.13
2022-11-28T12:49:35.992Z,64.07
2022-11-28T12:52:17.474Z,63.87
2022-11-28T12:54:59.252Z,63.26
2022-11-28T12:57:33.548Z,62.53
2022-11-28T13:00:09.210Z,62.87
2022-11-28T13:02:41.802Z,63.16
2022-11-28T13:05:14.129Z,63.18
2022-11-28T13:07:49.411Z,63.47
2022-11-28T13:10:27.786Z,63.77
2022-11-28T13:13:06.540Z,63.65
2022-11-28T13:15:48.261Z,63.64
2022-11-28T13:18:24.016Z,63.84
2022-11-28T13:21:03.634Z,63.99
2022-11-28T13:23:53.169Z,63.92
2022-11-28T13:26:28.944Z,63.97
2022-11-28T13:29:05.077Z,64.29
2022-11-28T13:31:40.990Z,64.47
2022-11-28T13:34:19.571Z,64.59
2022-11-28T13:39:29.243Z,64.75
2022-11-28T13:42:21.797Z,65.14
2022-11-28T13:44:38.797Z,65.09
2022-11-28T13:47:18.153Z,65.11
2022-11-28T13:49:50.723Z,65.27
2022-11-28T13:52:31.466Z,65.21
2022-11-28T13:55:03.136Z,65.29
2022-11-28T13:57:39.030Z,65.29
2022-11-28T14:00:22.776Z,65.38
2022-11-28T14:02:55.759Z,65.54
2022-11-28T14:05:28.904Z,65.52
2022-11-28T14:08:00.553Z,65.57
2022-11-28T14:10:42.772Z,65.67
2022-11-28T14:13:15.223Z,65.79
2022-11-28T14:15:48.111Z,65.87
2022-11-28T14:21:13.238Z,65.94
2022-11-28T14:23:46.084Z,66.10
2022-11-28T14:26:35.110Z,66.25
2022-11-28T14:29:07.910Z,65.30
2022-11-28T14:31:55.200Z,65.39
2022-11-28T14:34:35.200Z,64.89
2022-11-28T14:37:24.178Z,64.79
2022-11-28T14:39:56.515Z,64.94
2022-11-28T14:42:59.995Z,65.04
2022-11-28T14:45:08.372Z,64.96
2022-11-28T14:47:39.531Z,65.11
2022-11-28T14:50:17.510Z,65.20
2022-11-28T14:52:51.363Z,65.37
2022-11-28T14:55:23.137Z,65.57
2022-11-28T14:57:56.687Z,65.46
2022-11-28T15:00:30.028Z,65.27
2022-11-28T15:03:05.876Z,64.39
2022-11-28T15:05:44.483Z,64.06
2022-11-28T15:08:22.985Z,63.74
2022-11-28T15:11:11.219Z,64.05
2022-11-28T15:13:44.471Z,64.01
2022-11-28T15:16:17.523Z,64.24
2022-11-28T15:18:50.799Z,64.34
2022-11-28T15:21:23.087Z,64.67
2022-11-28T15:23:56.343Z,64.63
2022-11-28T15:26:30.917Z,64.64
2022-11-28T15:29:09.590Z,64.80
2022-11-28T15:31:42.267Z,64.71
2022-11-28T15:34:15.115Z,64.99
2022-11-28T15:36:46.609Z,65.13
2022-11-28T15:39:25.021Z,65.31
2022-11-28T15:42:00.766Z,65.35
2022-11-28T15:44:32.739Z,65.35
2022-11-28T15:47:05.696Z,65.38
2022-11-28T15:49:38.261Z,65.72
2022-11-28T15:52:11.088Z,65.81
2022-11-28T15:54:43.222Z,65.92
2022-11-28T15:57:26.108Z,66.03
2022-11-28T15:59:57.269Z,66.22
2022-11-28T16:02:30.183Z,66.30
2022-11-28T16:05:13.001Z,66.48
2022-11-28T16:07:45.260Z,66.39
2022-11-28T16:10:26.816Z,66.39
2022-11-28T16:13:02.791Z,66.44
2022-11-28T16:15:33.877Z,66.66
2022-11-28T16:18:05.734Z,66.65
2022-11-28T16:20:38.378Z,66.81
2022-11-28T16:23:10.622Z,67.03
2022-11-28T16:25:41.726Z,65.67
2022-11-28T16:28:32.357Z,65.68
2022-11-28T16:31:03.479Z,65.80
2022-11-28T16:33:39.310Z,65.97
2022-11-28T16:36:20.513Z,66.14
2022-11-28T16:38:53.384Z,66.22
2022-11-28T16:41:27.377Z,66.48
2022-11-28T16:44:06.433Z,66.60
2022-11-28T16:46:38.995Z,66.45
2022-11-28T16:49:12.418Z,66.52
2022-11-28T16:51:44.794Z,66.65
2022-11-28T16:54:24.253Z,66.55
2022-11-28T16:56:59.749Z,66.61
2022-11-28T16:59:31.318Z,66.64
2022-11-28T17:02:04.616Z,66.73
2022-11-28T17:04:35.970Z,66.85
2022-11-28T17:07:09.170Z,66.66
2022-11-28T17:09:42.161Z,66.76
2022-11-28T17:12:14.945Z,66.81
2022-11-28T17:14:46.253Z,66.58
2022-11-28T17:17:18.454Z,66.70
2022-11-28T17:19:49.550Z,66.87
2022-11-28T17:22:22.098Z,66.87
2022-11-28T17:24:54.528Z,67.21
2022-11-28T17:27:25.776Z,67.11
2022-11-28T17:29:56.751Z,67.18
2022-11-28T17:32:27.690Z,67.27
2022-11-28T17:35:00.163Z,67.28
2022-11-28T17:37:31.993Z,67.14
2022-11-28T17:40:20.587Z,67.13
2022-11-28T17:42:51.627Z,67.20
2022-11-28T17:45:23.138Z,67.14
2022-11-28T17:47:54.599Z,67.32
2022-11-28T17:50:25.983Z,67.46
2022-11-28T17:52:56.902Z,67.42
2022-11-28T17:55:28.039Z,67.38
2022-11-28T17:57:59.565Z,67.30
2022-11-28T18:00:33.007Z,67.35
2022-11-28T18:03:04.319Z,67.36
2022-11-28T18:05:39.205Z,67.45
2022-11-28T18:08:10.679Z,67.47
2022-11-28T18:10:41.976Z,67.62
2022-11-28T18:13:16.899Z,67.64
2022-11-28T18:15:48.045Z,67.69
2022-11-28T18:18:19.169Z,67.74
2022-11-28T18:20:50.220Z,67.82
2022-11-28T18:23:21.636Z,67.71
2022-11-28T18:25:52.707Z,67.73
2022-11-28T18:28:24.244Z,67.78
2022-11-28T18:30:55.438Z,67.81
2022-11-28T18:33:27.060Z,67.49
2022-11-28T18:36:00.130Z,67.51
2022-11-28T18:38:31.428Z,67.43
2022-11-28T18:41:03.907Z,67.51
2022-11-28T18:43:35.102Z,67.48
2022-11-28T18:46:08.091Z,67.53
2022-11-28T18:48:39.736Z,67.68
2022-11-28T18:51:14.441Z,67.71
2022-11-28T18:53:47.016Z,67.82
2022-11-28T18:56:19.091Z,67.88
2022-11-28T18:58:53.432Z,67.73
2022-11-28T19:01:30.629Z,67.70
2022-11-28T19:04:04.121Z,67.16
2022-11-28T19:06:36.000Z,67.20
2022-11-28T19:09:09.559Z,67.17
2022-11-28T19:11:41.099Z,66.94
2022-11-28T19:14:13.712Z,66.94
2022-11-28T19:16:45.311Z,67.12
2022-11-28T19:19:18.342Z,67.13
2022-11-28T19:21:51.092Z,67.17
2022-11-28T19:24:21.981Z,67.12
2022-11-28T19:26:53.111Z,67.30
2022-11-28T19:29:24.647Z,67.21
2022-11-28T19:31:56.621Z,67.22
2022-11-28T19:34:27.890Z,67.26
2022-11-28T19:36:58.801Z,67.54
2022-11-28T19:39:29.915Z,67.54
2022-11-28T19:42:03.939Z,67.45
2022-11-28T19:44:34.726Z,66.82
2022-11-28T19:47:07.088Z,66.92
2022-11-28T19:49:38.383Z,66.77
2022-11-28T19:52:09.756Z,66.89
2022-11-28T19:54:42.025Z,66.91
2022-11-28T19:57:13.074Z,67.10
2022-11-28T19:59:44.358Z,67.06
2022-11-28T20:02:16.123Z,67.14
2022-11-28T20:04:47.205Z,67.05
2022-11-28T20:07:18.204Z,67.14
2022-11-28T20:09:49.182Z,67.11
2022-11-28T20:12:20.268Z,67.18
2022-11-28T20:14:51.091Z,66.96
2022-11-28T20:17:21.935Z,67.03
2022-11-28T20:19:53.043Z,67.09
2022-11-28T20:22:25.087Z,67.06
2022-11-28T20:24:56.257Z,67.05
2022-11-28T20:27:27.159Z,67.17
2022-11-28T20:29:58.745Z,67.15
2022-11-28T20:32:31.412Z,67.10
2022-11-28T20:35:02.347Z,67.05
2022-11-28T20:37:33.516Z,66.96
2022-11-28T20:40:04.397Z,66.89
2022-11-28T20:42:39.617Z,67.03
2022-11-28T20:45:08.278Z,67.02
2022-11-28T20:47:39.058Z,67.01
2022-11-28T20:50:10.301Z,67.28
2022-11-28T20:52:41.141Z,67.32
2022-11-28T20:55:12.193Z,67.22
2022-11-28T20:57:43.115Z,67.37
2022-11-28T21:00:14.383Z,67.50
2022-11-28T21:02:46.221Z,67.44
2022-11-28T21:05:17.107Z,67.42
2022-11-28T21:07:47.907Z,67.57
2022-11-28T21:10:19.263Z,67.61
2022-11-28T21:12:50.320Z,67.70
2022-11-28T21:15:21.134Z,67.63
2022-11-28T21:17:52.098Z,67.52
2022-11-28T21:20:23.125Z,67.54
2022-11-28T21:22:54.347Z,67.54
2022-11-28T21:25:25.415Z,67.77
2022-11-28T21:27:56.236Z,67.69
2022-11-28T21:30:27.045Z,67.88
2022-11-28T21:32:57.827Z,67.72
2022-11-28T21:35:29.101Z,67.79
2022-11-28T21:37:59.966Z,68.14
2022-11-28T21:40:30.794Z,67.93
2022-11-28T21:43:01.644Z,67.94
2022-11-28T21:45:34.127Z,68.06
2022-11-28T21:48:06.000Z,67.94
2022-11-28T21:50:36.746Z,68.28
2022-11-28T21:53:07.763Z,68.11
2022-11-28T21:55:39.192Z,68.21
2022-11-28T21:58:10.519Z,68.22
2022-11-28T22:00:54.158Z,68.35
2022-11-28T22:03:14.628Z,68.38
2022-11-28T22:05:45.744Z,68.36
2022-11-28T22:08:16.706Z,68.38
2022-11-28T22:10:48.037Z,68.46
2022-11-28T22:13:19.183Z,68.50
2022-11-28T22:15:50.402Z,68.75
2022-11-28T22:18:21.452Z,68.76
2022-11-28T22:20:53.369Z,68.85
2022-11-28T22:23:24.211Z,68.98
2022-11-28T22:25:55.543Z,68.93
2022-11-28T22:28:26.649Z,69.05
2022-11-28T22:30:57.636Z,69.01
2022-11-28T22:33:28.433Z,68.99
2022-11-28T22:36:11.033Z,68.76
2022-11-28T22:38:42.639Z,68.79
2022-11-28T22:41:15.891Z,68.36
2022-11-28T22:43:47.587Z,68.52
2022-11-28T22:46:20.010Z,68.47
2022-11-28T22:48:52.184Z,68.50
2022-11-28T22:51:25.326Z,68.50
2022-11-28T22:53:58.113Z,68.57
2022-11-28T22:56:31.813Z,68.59
2022-11-28T22:59:05.159Z,68.65
2022-11-28T23:01:36.492Z,68.77
2022-11-28T23:04:07.403Z,69.02
2022-11-28T23:06:38.289Z,68.97
2022-11-28T23:09:09.948Z,69.16
2022-11-28T23:11:41.278Z,69.07
2022-11-28T23:14:14.099Z,69.13
2022-11-28T23:16:46.047Z,69.04
2022-11-28T23:19:18.067Z,69.06
2022-11-28T23:21:49.988Z,69.11
2022-11-28T23:24:23.259Z,69.11
2022-11-28T23:26:54.936Z,68.67
2022-11-28T23:29:26.756Z,68.72
2022-11-28T23:31:58.477Z,68.79
2022-11-28T23:34:30.880Z,68.75
2022-11-28T23:37:02.814Z,68.09
2022-11-28T23:39:34.565Z,68.04
2022-11-28T23:42:09.957Z,67.92
2022-11-28T23:44:41.043Z,67.44
2022-11-28T23:47:12.088Z,67.21
2022-11-28T23:49:43.385Z,67.22
2022-11-28T23:52:14.331Z,67.26
2022-11-28T23:54:45.679Z,67.40
2022-11-28T23:57:16.891Z,67.41
2022-11-28T23:59:47.708Z,67.36
